sensor_id;sensor_type;location;lat;lon;timestamp;pressure;altitude;pressure_sealevel;temperature;humidity
74675;BME280;63200;48.810;12.352;2023-07-31T00:00:11;97566.50;;;14.13;100.00
74675;BME280;63200;48.810;12.352;2023-07-31T00:02:36;97563.44;;;14.15;100.00
74675;BME280;63200;48.810;12.352;2023-07-31T00:05:02;97571.00;;;14.18;100.00
74675;BME280;63200;48.810;12.352;2023-07-31T00:07:27;97566.38;;;14.19;100.00
74675;BME280;63200;48.810;12.352;2023-07-31T00:09:52;97562.22;;;14.21;100.00
74675;BME280;63200;48.810;12.352;2023-07-31T00:12:19;97539.59;;;14.07;100.00
74675;BME280;63200;48.810;12.352;2023-07-31T00:14:44;97562.03;;;14.18;100.00
74675;BME280;63200;48.810;12.352;2023-07-31T00:17:09;97556.78;;;14.07;100.00
74675;BME280;63200;48.810;12.352;2023-07-31T00:19:35;97552.84;;;13.99;100.00
74675;BME280;63200;48.810;12.352;2023-07-31T00:22:00;97562.84;;;13.90;100.00
74675;BME280;63200;48.810;12.352;2023-07-31T00:24:26;97550.34;;;13.75;100.00
74675;BME280;63200;48.810;12.352;2023-07-31T00:26:51;97562.06;;;13.62;100.00
74675;BME280;63200;48.810;12.352;2023-07-31T00:29:16;97554.69;;;13.48;100.00
74675;BME280;63200;48.810;12.352;2023-07-31T00:31:42;97551.03;;;13.39;100.00
74675;BME280;63200;48.810;12.352;2023-07-31T00:34:07;97552.44;;;13.37;100.00
74675;BME280;63200;48.810;12.352;2023-07-31T00:36:32;97559.53;;;13.38;100.00
74675;BME280;63200;48.810;12.352;2023-07-31T00:38:58;97552.28;;;13.28;100.00
74675;BME280;63200;48.810;12.352;2023-07-31T00:41:23;97564.50;;;13.16;100.00
74675;BME280;63200;48.810;12.352;2023-07-31T00:43:48;97558.31;;;13.11;100.00
74675;BME280;63200;48.810;12.352;2023-07-31T00:46:14;97556.91;;;13.13;100.00
74675;BME280;63200;48.810;12.352;2023-07-31T00:48:39;97549.25;;;13.15;100.00
74675;BME280;63200;48.810;12.352;2023-07-31T00:51:05;97533.84;;;13.06;100.00
74675;BME280;63200;48.810;12.352;2023-07-31T00:53:30;97559.66;;;13.27;100.00
74675;BME280;63200;48.810;12.352;2023-07-31T00:55:56;97518.94;;;13.03;100.00
74675;BME280;63200;48.810;12.352;2023-07-31T00:58:22;97562.19;;;13.24;100.00
74675;BME280;63200;48.810;12.352;2023-07-31T01:00:47;97552.47;;;13.17;100.00
74675;BME280;63200;48.810;12.352;2023-07-31T01:03:13;97552.34;;;13.09;100.00
74675;BME280;63200;48.810;12.352;2023-07-31T01:05:57;97542.72;;;12.97;100.00
74675;BME280;63200;48.810;12.352;2023-07-31T01:11:15;97550.94;;;12.78;100.00
74675;BME280;63200;48.810;12.352;2023-07-31T01:13:42;97555.38;;;12.74;100.00
74675;BME280;63200;48.810;12.352;2023-07-31T01:16:08;97546.19;;;12.70;100.00
74675;BME280;63200;48.810;12.352;2023-07-31T01:18:33;97536.38;;;12.69;100.00
74675;BME280;63200;48.810;12.352;2023-07-31T01:21:16;97519.25;;;12.49;100.00
74675;BME280;63200;48.810;12.352;2023-07-31T01:24:12;97530.41;;;12.67;100.00
74675;BME280;63200;48.810;12.352;2023-07-31T01:26:49;97527.63;;;12.72;100.00
74675;BME280;63200;48.810;12.352;2023-07-31T01:31:53;97528.56;;;12.81;100.00
74675;BME280;63200;48.810;12.352;2023-07-31T01:34:21;97508.53;;;12.72;100.00
74675;BME280;63200;48.810;12.352;2023-07-31T01:36:47;97476.41;;;12.55;100.00
74675;BME280;63200;48.810;12.352;2023-07-31T01:39:12;97525.25;;;12.85;100.00
74675;BME280;63200;48.810;12.352;2023-07-31T01:41:38;97530.56;;;12.76;100.00
74675;BME280;63200;48.810;12.352;2023-07-31T01:44:03;97526.13;;;12.80;100.00
74675;BME280;63200;48.810;12.352;2023-07-31T01:46:29;97521.09;;;12.87;100.00
74675;BME280;63200;48.810;12.352;2023-07-31T01:48:54;97518.50;;;12.96;100.00
74675;BME280;63200;48.810;12.352;2023-07-31T01:51:19;97520.63;;;12.99;100.00
74675;BME280;63200;48.810;12.352;2023-07-31T01:53:45;97509.16;;;13.02;100.00
74675;BME280;63200;48.810;12.352;2023-07-31T01:56:10;97509.84;;;13.08;100.00
74675;BME280;63200;48.810;12.352;2023-07-31T01:58:35;97513.38;;;13.08;100.00
74675;BME280;63200;48.810;12.352;2023-07-31T02:01:01;97478.41;;;12.82;100.00
74675;BME280;63200;48.810;12.352;2023-07-31T02:03:26;97510.66;;;13.08;100.00
74675;BME280;63200;48.810;12.352;2023-07-31T02:05:53;97504.50;;;13.03;100.00
74675;BME280;63200;48.810;12.352;2023-07-31T02:08:19;97501.38;;;13.09;100.00
74675;BME280;63200;48.810;12.352;2023-07-31T02:10:44;97503.69;;;13.16;100.00
74675;BME280;63200;48.810;12.352;2023-07-31T02:13:09;97482.06;;;13.06;100.00
74675;BME280;63200;48.810;12.352;2023-07-31T02:15:35;97493.53;;;13.22;100.00
74675;BME280;63200;48.810;12.352;2023-07-31T02:18:00;97486.16;;;13.22;100.00
74675;BME280;63200;48.810;12.352;2023-07-31T02:20:25;97492.91;;;13.25;100.00
74675;BME280;63200;48.810;12.352;2023-07-31T02:22:51;97505.13;;;13.27;100.00
74675;BME280;63200;48.810;12.352;2023-07-31T02:25:16;97492.91;;;13.25;100.00
74675;BME280;63200;48.810;12.352;2023-07-31T02:27:42;97484.53;;;13.21;100.00
74675;BME280;63200;48.810;12.352;2023-07-31T02:30:07;97467.53;;;12.96;100.00
74675;BME280;63200;48.810;12.352;2023-07-31T02:32:33;97437.72;;;12.72;100.00
74675;BME280;63200;48.810;12.352;2023-07-31T02:34:58;97488.44;;;13.01;100.00
74675;BME280;63200;48.810;12.352;2023-07-31T02:37:23;97489.63;;;12.95;100.00
74675;BME280;63200;48.810;12.352;2023-07-31T02:39:49;97487.50;;;12.92;100.00
74675;BME280;63200;48.810;12.352;2023-07-31T02:42:14;97476.31;;;12.93;100.00
74675;BME280;63200;48.810;12.352;2023-07-31T02:44:40;97491.03;;;12.92;100.00
74675;BME280;63200;48.810;12.352;2023-07-31T02:47:05;97481.34;;;12.86;100.00
74675;BME280;63200;48.810;12.352;2023-07-31T02:49:30;97492.56;;;12.85;100.00
74675;BME280;63200;48.810;12.352;2023-07-31T02:51:56;97488.50;;;12.82;100.00
74675;BME280;63200;48.810;12.352;2023-07-31T02:54:21;97492.50;;;12.71;100.00
74675;BME280;63200;48.810;12.352;2023-07-31T02:56:47;97490.47;;;12.62;100.00
74675;BME280;63200;48.810;12.352;2023-07-31T02:59:13;97482.50;;;12.66;100.00
74675;BME280;63200;48.810;12.352;2023-07-31T03:01:38;97489.63;;;12.62;100.00
74675;BME280;63200;48.810;12.352;2023-07-31T03:04:04;97430.25;;;12.31;100.00
74675;BME280;63200;48.810;12.352;2023-07-31T03:06:29;97468.53;;;12.54;100.00
74675;BME280;63200;48.810;12.352;2023-07-31T03:08:54;97474.38;;;12.47;100.00
74675;BME280;63200;48.810;12.352;2023-07-31T03:11:20;97482.63;;;12.42;100.00
74675;BME280;63200;48.810;12.352;2023-07-31T03:13:45;97484.53;;;12.41;100.00
74675;BME280;63200;48.810;12.352;2023-07-31T03:16:10;97457.47;;;12.31;100.00
74675;BME280;63200;48.810;12.352;2023-07-31T03:18:36;97486.28;;;12.51;100.00
74675;BME280;63200;48.810;12.352;2023-07-31T03:21:01;97488.69;;;12.53;100.00
74675;BME280;63200;48.810;12.352;2023-07-31T03:23:26;97486.56;;;12.49;100.00
74675;BME280;63200;48.810;12.352;2023-07-31T03:25:59;97485.25;;;12.47;100.00
74675;BME280;63200;48.810;12.352;2023-07-31T03:28:24;97491.09;;;12.40;100.00
74675;BME280;63200;48.810;12.352;2023-07-31T03:30:51;97491.88;;;12.41;100.00
74675;BME280;63200;48.810;12.352;2023-07-31T03:33:16;97489.22;;;12.36;100.00
74675;BME280;63200;48.810;12.352;2023-07-31T03:35:41;97479.78;;;12.33;100.00
74675;BME280;63200;48.810;12.352;2023-07-31T03:38:07;97485.00;;;12.29;100.00
74675;BME280;63200;48.810;12.352;2023-07-31T03:40:32;97487.50;;;12.26;100.00
74675;BME280;63200;48.810;12.352;2023-07-31T03:42:57;97471.44;;;12.05;100.00
74675;BME280;63200;48.810;12.352;2023-07-31T03:45:23;97487.69;;;12.10;100.00
74675;BME280;63200;48.810;12.352;2023-07-31T03:47:48;97496.63;;;11.92;100.00
74675;BME280;63200;48.810;12.352;2023-07-31T03:50:13;97487.56;;;11.77;100.00
74675;BME280;63200;48.810;12.352;2023-07-31T03:52:39;97494.50;;;11.70;100.00
74675;BME280;63200;48.810;12.352;2023-07-31T03:55:04;97488.88;;;11.61;100.00
74675;BME280;63200;48.810;12.352;2023-07-31T03:57:30;97491.16;;;11.54;100.00
74675;BME280;63200;48.810;12.352;2023-07-31T03:59:57;97492.53;;;11.51;100.00
74675;BME280;63200;48.810;12.352;2023-07-31T04:02:23;97496.13;;;11.46;100.00
74675;BME280;63200;48.810;12.352;2023-07-31T04:04:48;97496.34;;;11.50;100.00
74675;BME280;63200;48.810;12.352;2023-07-31T04:07:13;97502.03;;;11.54;100.00
74675;BME280;63200;48.810;12.352;2023-07-31T04:09:39;97498.66;;;11.62;100.00
74675;BME280;63200;48.810;12.352;2023-07-31T04:12:04;97502.41;;;11.66;100.00
74675;BME280;63200;48.810;12.352;2023-07-31T04:14:29;97496.09;;;11.71;100.00
74675;BME280;63200;48.810;12.352;2023-07-31T04:16:55;97499.03;;;11.74;100.00
74675;BME280;63200;48.810;12.352;2023-07-31T04:19:20;97484.59;;;11.79;100.00
74675;BME280;63200;48.810;12.352;2023-07-31T04:21:45;97489.38;;;11.87;100.00
74675;BME280;63200;48.810;12.352;2023-07-31T04:24:11;97480.84;;;11.94;100.00
74675;BME280;63200;48.810;12.352;2023-07-31T04:26:36;97479.72;;;12.00;100.00
74675;BME280;63200;48.810;12.352;2023-07-31T04:29:01;97452.59;;;11.90;100.00
74675;BME280;63200;48.810;12.352;2023-07-31T04:31:26;97465.94;;;12.10;100.00
74675;BME280;63200;48.810;12.352;2023-07-31T04:33:52;97471.09;;;12.12;100.00
74675;BME280;63200;48.810;12.352;2023-07-31T04:36:17;97468.56;;;12.15;100.00
74675;BME280;63200;48.810;12.352;2023-07-31T04:38:42;97463.38;;;12.19;100.00
74675;BME280;63200;48.810;12.352;2023-07-31T04:41:08;97464.63;;;12.27;100.00
74675;BME280;63200;48.810;12.352;2023-07-31T04:43:33;97463.44;;;12.33;100.00
74675;BME280;63200;48.810;12.352;2023-07-31T04:45:58;97468.28;;;12.36;100.00
74675;BME280;63200;48.810;12.352;2023-07-31T04:48:24;97423.28;;;12.06;100.00
74675;BME280;63200;48.810;12.352;2023-07-31T04:50:49;97461.88;;;12.27;100.00
74675;BME280;63200;48.810;12.352;2023-07-31T04:53:14;97469.16;;;12.31;100.00
74675;BME280;63200;48.810;12.352;2023-07-31T04:55:40;97470.09;;;12.41;100.00
74675;BME280;63200;48.810;12.352;2023-07-31T04:58:05;97472.34;;;12.53;100.00
74675;BME280;63200;48.810;12.352;2023-07-31T05:00:30;97463.94;;;12.68;100.00
74675;BME280;63200;48.810;12.352;2023-07-31T05:02:56;97482.75;;;12.83;100.00
74675;BME280;63200;48.810;12.352;2023-07-31T05:05:21;97476.53;;;12.97;100.00
74675;BME280;63200;48.810;12.352;2023-07-31T05:07:47;97478.38;;;13.15;100.00
74675;BME280;63200;48.810;12.352;2023-07-31T05:10:12;97472.91;;;13.29;100.00
74675;BME280;63200;48.810;12.352;2023-07-31T05:12:38;97476.31;;;13.40;100.00
74675;BME280;63200;48.810;12.352;2023-07-31T05:15:03;97470.94;;;13.49;100.00
74675;BME280;63200;48.810;12.352;2023-07-31T05:17:29;97471.13;;;13.53;100.00
74675;BME280;63200;48.810;12.352;2023-07-31T05:19:54;97462.75;;;13.63;100.00
74675;BME280;63200;48.810;12.352;2023-07-31T05:22:19;97462.03;;;13.71;100.00
74675;BME280;63200;48.810;12.352;2023-07-31T05:24:45;97465.44;;;13.91;100.00
74675;BME280;63200;48.810;12.352;2023-07-31T05:27:10;97468.06;;;13.96;100.00
74675;BME280;63200;48.810;12.352;2023-07-31T05:29:35;97459.75;;;14.01;100.00
74675;BME280;63200;48.810;12.352;2023-07-31T05:32:01;97464.28;;;14.06;100.00
74675;BME280;63200;48.810;12.352;2023-07-31T05:34:26;97439.34;;;13.98;100.00
74675;BME280;63200;48.810;12.352;2023-07-31T05:36:52;97460.09;;;14.22;100.00
74675;BME280;63200;48.810;12.352;2023-07-31T05:39:17;97464.19;;;14.33;100.00
74675;BME280;63200;48.810;12.352;2023-07-31T05:41:44;97437.72;;;14.34;100.00
74675;BME280;63200;48.810;12.352;2023-07-31T05:44:10;97466.81;;;14.84;100.00
74675;BME280;63200;48.810;12.352;2023-07-31T05:46:35;97467.78;;;15.20;100.00
74675;BME280;63200;48.810;12.352;2023-07-31T05:49:01;97457.00;;;15.63;100.00
74675;BME280;63200;48.810;12.352;2023-07-31T05:51:27;97463.22;;;16.04;100.00
74675;BME280;63200;48.810;12.352;2023-07-31T05:53:52;97462.59;;;16.33;100.00
74675;BME280;63200;48.810;12.352;2023-07-31T05:56:18;97460.81;;;16.55;100.00
74675;BME280;63200;48.810;12.352;2023-07-31T05:58:43;97463.03;;;16.71;100.00
74675;BME280;63200;48.810;12.352;2023-07-31T06:01:08;97465.94;;;16.74;100.00
74675;BME280;63200;48.810;12.352;2023-07-31T06:03:34;97472.53;;;16.73;99.09
74675;BME280;63200;48.810;12.352;2023-07-31T06:05:59;97467.88;;;16.65;98.97
74675;BME280;63200;48.810;12.352;2023-07-31T06:08:25;97464.03;;;16.66;100.00
74675;BME280;63200;48.810;12.352;2023-07-31T06:10:50;97468.06;;;16.60;99.25
74675;BME280;63200;48.810;12.352;2023-07-31T06:13:15;97462.75;;;16.63;99.13
74675;BME280;63200;48.810;12.352;2023-07-31T06:15:41;97460.16;;;16.67;99.95
74675;BME280;63200;48.810;12.352;2023-07-31T06:18:06;97455.47;;;16.76;98.86
74675;BME280;63200;48.810;12.352;2023-07-31T06:20:33;97400.94;;;16.75;99.78
74675;BME280;63200;48.810;12.352;2023-07-31T06:22:59;97449.72;;;17.17;99.24
74675;BME280;63200;48.810;12.352;2023-07-31T06:25:24;97450.66;;;17.29;97.12
74675;BME280;63200;48.810;12.352;2023-07-31T06:27:49;97456.13;;;17.59;96.46
74675;BME280;63200;48.810;12.352;2023-07-31T06:30:15;97463.63;;;17.80;91.08
74675;BME280;63200;48.810;12.352;2023-07-31T06:32:40;97451.94;;;17.92;88.74
74675;BME280;63200;48.810;12.352;2023-07-31T06:35:06;97455.31;;;18.19;87.07
74675;BME280;63200;48.810;12.352;2023-07-31T06:37:31;97429.56;;;18.44;85.87
74675;BME280;63200;48.810;12.352;2023-07-31T06:39:57;97451.34;;;18.83;77.39
74675;BME280;63200;48.810;12.352;2023-07-31T06:42:22;97453.38;;;19.07;74.93
74675;BME280;63200;48.810;12.352;2023-07-31T06:44:47;97455.34;;;19.19;73.27
74675;BME280;63200;48.810;12.352;2023-07-31T06:47:13;97453.50;;;19.23;71.05
74675;BME280;63200;48.810;12.352;2023-07-31T06:49:38;97446.06;;;19.36;70.25
74675;BME280;63200;48.810;12.352;2023-07-31T06:52:04;97443.22;;;19.45;68.19
74675;BME280;63200;48.810;12.352;2023-07-31T06:54:29;97429.09;;;19.46;68.12
74675;BME280;63200;48.810;12.352;2023-07-31T06:56:55;97446.19;;;19.40;66.19
74675;BME280;63200;48.810;12.352;2023-07-31T06:59:20;97450.66;;;19.81;68.05
74675;BME280;63200;48.810;12.352;2023-07-31T07:01:45;97439.06;;;19.76;65.41
74675;BME280;63200;48.810;12.352;2023-07-31T07:04:10;97406.25;;;19.71;66.46
74675;BME280;63200;48.810;12.352;2023-07-31T07:06:36;97439.06;;;19.88;64.96
74675;BME280;63200;48.810;12.352;2023-07-31T07:09:01;97438.84;;;19.81;63.98
74675;BME280;63200;48.810;12.352;2023-07-31T07:11:27;97432.28;;;19.86;66.10
74675;BME280;63200;48.810;12.352;2023-07-31T07:13:52;97438.38;;;19.67;64.20
74675;BME280;63200;48.810;12.352;2023-07-31T07:16:17;97432.75;;;19.88;65.57
74675;BME280;63200;48.810;12.352;2023-07-31T07:18:43;97429.72;;;20.18;63.56
74675;BME280;63200;48.810;12.352;2023-07-31T07:21:08;97428.59;;;20.35;63.46
74675;BME280;63200;48.810;12.352;2023-07-31T07:23:34;97410.78;;;20.04;61.97
74675;BME280;63200;48.810;12.352;2023-07-31T07:25:59;97430.16;;;20.20;62.64
74675;BME280;63200;48.810;12.352;2023-07-31T07:28:24;97426.53;;;20.03;63.86
74675;BME280;63200;48.810;12.352;2023-07-31T07:30:53;97433.88;;;20.11;63.52
74675;BME280;63200;48.810;12.352;2023-07-31T07:33:21;97431.63;;;19.64;64.05
74675;BME280;63200;48.810;12.352;2023-07-31T07:35:46;97429.78;;;19.31;66.16
74675;BME280;63200;48.810;12.352;2023-07-31T07:38:14;97429.22;;;19.62;66.84
74675;BME280;63200;48.810;12.352;2023-07-31T07:40:40;97426.81;;;19.61;68.68
74675;BME280;63200;48.810;12.352;2023-07-31T07:43:05;97436.53;;;19.71;65.33
74675;BME280;63200;48.810;12.352;2023-07-31T07:45:31;97430.94;;;19.55;63.98
74675;BME280;63200;48.810;12.352;2023-07-31T07:47:56;97420.25;;;19.28;66.42
74675;BME280;63200;48.810;12.352;2023-07-31T07:50:22;97427.13;;;19.84;66.69
74675;BME280;63200;48.810;12.352;2023-07-31T07:52:47;97440.13;;;19.71;63.67
74675;BME280;63200;48.810;12.352;2023-07-31T07:55:12;97416.94;;;19.85;63.81
74675;BME280;63200;48.810;12.352;2023-07-31T07:57:38;97422.53;;;19.76;64.76
74675;BME280;63200;48.810;12.352;2023-07-31T08:00:04;97409.00;;;19.83;65.37
74675;BME280;63200;48.810;12.352;2023-07-31T08:02:30;97408.16;;;19.95;62.90
74675;BME280;63200;48.810;12.352;2023-07-31T08:04:55;97401.50;;;19.96;65.24
74675;BME280;63200;48.810;12.352;2023-07-31T08:07:20;97409.72;;;20.49;65.94
74675;BME280;63200;48.810;12.352;2023-07-31T08:09:45;97423.78;;;20.72;62.19
74675;BME280;63200;48.810;12.352;2023-07-31T08:12:11;97413.75;;;20.68;59.80
74675;BME280;63200;48.810;12.352;2023-07-31T08:14:36;97410.63;;;21.45;58.95
74675;BME280;63200;48.810;12.352;2023-07-31T08:17:02;97408.09;;;22.08;56.63
74675;BME280;63200;48.810;12.352;2023-07-31T08:19:27;97411.88;;;22.00;53.17
74675;BME280;63200;48.810;12.352;2023-07-31T08:21:52;97412.97;;;22.14;53.15
74675;BME280;63200;48.810;12.352;2023-07-31T08:24:18;97416.84;;;21.74;53.25
74675;BME280;63200;48.810;12.352;2023-07-31T08:26:43;97417.75;;;21.30;53.93
74675;BME280;63200;48.810;12.352;2023-07-31T08:29:08;97381.69;;;21.23;54.68
74675;BME280;63200;48.810;12.352;2023-07-31T08:31:34;97416.59;;;21.63;55.33
74675;BME280;63200;48.810;12.352;2023-07-31T08:34:00;97371.63;;;20.83;56.03
74675;BME280;63200;48.810;12.352;2023-07-31T08:36:25;97417.25;;;21.09;55.46
74675;BME280;63200;48.810;12.352;2023-07-31T08:38:51;97427.81;;;21.07;57.41
74675;BME280;63200;48.810;12.352;2023-07-31T08:41:16;97411.25;;;20.62;57.23
74675;BME280;63200;48.810;12.352;2023-07-31T08:43:49;97416.75;;;20.62;57.54
74675;BME280;63200;48.810;12.352;2023-07-31T08:46:14;97406.97;;;20.65;58.09
74675;BME280;63200;48.810;12.352;2023-07-31T08:48:43;97416.47;;;20.52;57.03
74675;BME280;63200;48.810;12.352;2023-07-31T08:51:09;97419.63;;;20.78;56.85
74675;BME280;63200;48.810;12.352;2023-07-31T08:53:35;97418.81;;;21.10;57.30
74675;BME280;63200;48.810;12.352;2023-07-31T08:56:01;97417.25;;;21.57;55.94
74675;BME280;63200;48.810;12.352;2023-07-31T08:58:31;97411.44;;;21.98;54.61
74675;BME280;63200;48.810;12.352;2023-07-31T09:00:58;97388.44;;;21.93;54.00
74675;BME280;63200;48.810;12.352;2023-07-31T09:03:26;97366.91;;;21.83;55.34
74675;BME280;63200;48.810;12.352;2023-07-31T09:05:51;97403.91;;;22.53;54.24
74675;BME280;63200;48.810;12.352;2023-07-31T09:08:19;97401.31;;;22.84;52.11
74675;BME280;63200;48.810;12.352;2023-07-31T09:10:45;97391.59;;;22.70;52.97
74675;BME280;63200;48.810;12.352;2023-07-31T09:13:12;97353.16;;;21.67;52.36
74675;BME280;63200;48.810;12.352;2023-07-31T09:15:38;97399.09;;;22.11;54.46
74675;BME280;63200;48.810;12.352;2023-07-31T09:18:05;97404.03;;;22.60;54.04
74675;BME280;63200;48.810;12.352;2023-07-31T09:20:31;97400.56;;;22.87;53.09
74675;BME280;63200;48.810;12.352;2023-07-31T09:23:05;97394.50;;;23.01;52.49
74675;BME280;63200;48.810;12.352;2023-07-31T09:25:30;97381.44;;;22.78;51.28
74675;BME280;63200;48.810;12.352;2023-07-31T09:28:01;97394.63;;;23.31;52.00
74675;BME280;63200;48.810;12.352;2023-07-31T09:30:26;97389.19;;;23.65;51.86
74675;BME280;63200;48.810;12.352;2023-07-31T09:33:01;97388.03;;;23.93;51.45
74675;BME280;63200;48.810;12.352;2023-07-31T09:35:33;97382.94;;;23.68;50.77
74675;BME280;63200;48.810;12.352;2023-07-31T09:38:01;97378.03;;;23.58;51.28
74675;BME280;63200;48.810;12.352;2023-07-31T09:43:06;97371.47;;;22.73;52.32
74675;BME280;63200;48.810;12.352;2023-07-31T09:45:35;97371.34;;;22.89;53.71
74675;BME280;63200;48.810;12.352;2023-07-31T09:48:10;97372.34;;;23.24;52.49
74675;BME280;63200;48.810;12.352;2023-07-31T09:50:41;97366.28;;;23.15;51.75
74675;BME280;63200;48.810;12.352;2023-07-31T09:53:07;97360.16;;;23.05;51.46
74675;BME280;63200;48.810;12.352;2023-07-31T09:55:33;97318.97;;;23.27;53.75
74675;BME280;63200;48.810;12.352;2023-07-31T09:58:03;97308.63;;;23.77;51.78
74675;BME280;63200;48.810;12.352;2023-07-31T10:00:30;97335.13;;;24.05;52.54
74675;BME280;63200;48.810;12.352;2023-07-31T10:02:58;97332.88;;;23.88;50.81
74675;BME280;63200;48.810;12.352;2023-07-31T10:05:35;97332.63;;;23.97;50.42
74675;BME280;63200;48.810;12.352;2023-07-31T10:08:00;97328.81;;;24.08;49.01
74675;BME280;63200;48.810;12.352;2023-07-31T10:10:26;97331.22;;;24.10;50.01
74675;BME280;63200;48.810;12.352;2023-07-31T10:12:53;97315.06;;;23.89;50.31
74675;BME280;63200;48.810;12.352;2023-07-31T10:15:18;97319.72;;;23.24;49.80
74675;BME280;63200;48.810;12.352;2023-07-31T10:17:44;97287.78;;;22.80;50.88
74675;BME280;63200;48.810;12.352;2023-07-31T10:20:11;97279.44;;;22.53;53.72
74675;BME280;63200;48.810;12.352;2023-07-31T10:22:38;97311.34;;;24.04;52.45
74675;BME280;63200;48.810;12.352;2023-07-31T10:25:04;97306.78;;;25.05;47.56
74675;BME280;63200;48.810;12.352;2023-07-31T10:27:29;97304.34;;;26.48;45.51
74675;BME280;63200;48.810;12.352;2023-07-31T10:29:56;97304.81;;;26.71;43.85
74675;BME280;63200;48.810;12.352;2023-07-31T10:32:23;97302.00;;;25.58;44.59
74675;BME280;63200;48.810;12.352;2023-07-31T10:34:50;97306.31;;;24.96;45.94
74675;BME280;63200;48.810;12.352;2023-07-31T10:37:27;97300.09;;;24.27;47.90
74675;BME280;63200;48.810;12.352;2023-07-31T10:40:25;97293.34;;;23.60;48.84
74675;BME280;63200;48.810;12.352;2023-07-31T10:42:53;97270.50;;;23.13;48.88
74675;BME280;63200;48.810;12.352;2023-07-31T10:45:33;97303.00;;;24.76;47.47
74675;BME280;63200;48.810;12.352;2023-07-31T10:48:06;97300.16;;;25.21;45.79
74675;BME280;63200;48.810;12.352;2023-07-31T10:50:37;97298.41;;;25.54;45.45
74675;BME280;63200;48.810;12.352;2023-07-31T10:53:02;97290.75;;;26.06;43.53
74675;BME280;63200;48.810;12.352;2023-07-31T10:55:42;97291.28;;;26.84;42.69
74675;BME280;63200;48.810;12.352;2023-07-31T10:58:13;97284.03;;;26.36;42.62
74675;BME280;63200;48.810;12.352;2023-07-31T11:00:44;97281.75;;;25.54;44.11
74675;BME280;63200;48.810;12.352;2023-07-31T11:03:19;97277.09;;;25.83;43.92
74675;BME280;63200;48.810;12.352;2023-07-31T11:06:01;97279.44;;;25.07;44.85
74675;BME280;63200;48.810;12.352;2023-07-31T11:11:14;97267.00;;;26.49;42.94
74675;BME280;63200;48.810;12.352;2023-07-31T11:13:41;97257.06;;;26.80;41.57
74675;BME280;63200;48.810;12.352;2023-07-31T11:16:07;97232.81;;;26.91;39.73
74675;BME280;63200;48.810;12.352;2023-07-31T11:18:32;97246.34;;;26.79;42.46
74675;BME280;63200;48.810;12.352;2023-07-31T11:20:58;97243.06;;;27.49;41.11
74675;BME280;63200;48.810;12.352;2023-07-31T11:23:23;97247.75;;;27.73;41.41
74675;BME280;63200;48.810;12.352;2023-07-31T11:25:49;97251.03;;;27.39;40.60
74675;BME280;63200;48.810;12.352;2023-07-31T11:28:16;97255.88;;;26.77;41.85
74675;BME280;63200;48.810;12.352;2023-07-31T11:30:43;97241.94;;;26.67;41.16
74675;BME280;63200;48.810;12.352;2023-07-31T11:33:10;97247.81;;;26.07;41.29
74675;BME280;63200;48.810;12.352;2023-07-31T11:35:44;97245.09;;;26.29;42.73
74675;BME280;63200;48.810;12.352;2023-07-31T11:38:11;97235.09;;;27.40;41.73
74675;BME280;63200;48.810;12.352;2023-07-31T11:40:42;97220.25;;;27.75;41.78
74675;BME280;63200;48.810;12.352;2023-07-31T11:43:07;97220.47;;;26.78;40.08
74675;BME280;63200;48.810;12.352;2023-07-31T11:45:33;97219.66;;;26.52;42.27
74675;BME280;63200;48.810;12.352;2023-07-31T11:48:00;97225.88;;;27.61;42.15
74675;BME280;63200;48.810;12.352;2023-07-31T11:50:26;97218.19;;;27.90;41.30
74675;BME280;63200;48.810;12.352;2023-07-31T11:52:58;97205.44;;;27.93;40.62
74675;BME280;63200;48.810;12.352;2023-07-31T11:55:25;97225.00;;;27.82;40.32
74675;BME280;63200;48.810;12.352;2023-07-31T11:57:51;97213.72;;;26.90;39.85
74675;BME280;63200;48.810;12.352;2023-07-31T12:00:18;97212.03;;;27.43;41.60
74675;BME280;63200;48.810;12.352;2023-07-31T12:02:44;97193.03;;;28.05;39.12
74675;BME280;63200;48.810;12.352;2023-07-31T12:05:11;97182.25;;;28.07;38.89
74675;BME280;63200;48.810;12.352;2023-07-31T12:07:50;97175.38;;;27.45;38.82
74675;BME280;63200;48.810;12.352;2023-07-31T12:10:27;97189.06;;;27.91;39.43
74675;BME280;63200;48.810;12.352;2023-07-31T12:13:19;97188.59;;;28.67;39.26
74675;BME280;63200;48.810;12.352;2023-07-31T12:15:45;97185.84;;;28.00;38.65
74675;BME280;63200;48.810;12.352;2023-07-31T12:18:13;97150.59;;;27.61;39.66
74675;BME280;63200;48.810;12.352;2023-07-31T12:20:46;97167.53;;;28.03;40.13
74675;BME280;63200;48.810;12.352;2023-07-31T12:23:13;97173.94;;;27.92;38.98
74675;BME280;63200;48.810;12.352;2023-07-31T12:25:40;97172.31;;;27.95;38.73
74675;BME280;63200;48.810;12.352;2023-07-31T12:28:06;97153.25;;;26.54;40.46
74675;BME280;63200;48.810;12.352;2023-07-31T12:30:36;97167.41;;;27.47;39.47
74675;BME280;63200;48.810;12.352;2023-07-31T12:35:35;97164.38;;;27.90;38.93
74675;BME280;63200;48.810;12.352;2023-07-31T12:38:01;97159.78;;;27.58;39.50
74675;BME280;63200;48.810;12.352;2023-07-31T12:40:27;97153.13;;;28.12;39.30
74675;BME280;63200;48.810;12.352;2023-07-31T12:42:52;97148.44;;;27.90;39.54
74675;BME280;63200;48.810;12.352;2023-07-31T12:45:17;97152.22;;;27.55;39.27
74675;BME280;63200;48.810;12.352;2023-07-31T12:47:43;97161.59;;;26.80;39.20
74675;BME280;63200;48.810;12.352;2023-07-31T12:50:08;97152.59;;;27.64;39.25
74675;BME280;63200;48.810;12.352;2023-07-31T12:52:34;97145.63;;;28.01;38.13
74675;BME280;63200;48.810;12.352;2023-07-31T12:54:59;97138.13;;;28.43;39.27